createdAt,value
2022-07-29T00:00:11.079Z,52.38
2022-07-29T00:01:19.374Z,52.50
2022-07-29T00:02:13.189Z,52.61
2022-07-29T00:03:11.200Z,52.64
2022-07-29T00:04:11.183Z,52.77
2022-07-29T00:05:11.068Z,52.78
2022-07-29T00:06:11.067Z,52.87
2022-07-29T00:07:11.069Z,52.78
2022-07-29T00:08:12.748Z,52.70
2022-07-29T00:09:11.068Z,52.84
2022-07-29T00:10:11.067Z,52.94
2022-07-29T00:11:11.074Z,52.91
2022-07-29T00:12:11.065Z,52.83
2022-07-29T00:13:11.067Z,52.66
2022-07-29T00:14:11.074Z,52.59
2022-07-29T00:15:11.068Z,52.69
2022-07-29T00:16:11.078Z,53.01
2022-07-29T00:17:11.070Z,52.99
2022-07-29T00:18:11.068Z,52.91
2022-07-29T00:19:11.068Z,53.00
2022-07-29T00:20:11.067Z,52.88
2022-07-29T00:21:11.069Z,53.01
2022-07-29T00:22:11.066Z,52.98
2022-07-29T00:23:13.723Z,52.98
2022-07-29T00:24:11.058Z,52.89
2022-07-29T00:25:11.055Z,52.83
2022-07-29T00:26:11.058Z,52.89
2022-07-29T00:27:11.074Z,53.10
2022-07-29T00:28:11.058Z,53.25
2022-07-29T00:29:33.517Z,53.42
2022-07-29T00:30:13.235Z,53.31
2022-07-29T00:31:11.091Z,53.40
2022-07-29T00:32:11.062Z,53.43
2022-07-29T00:33:11.059Z,53.36
2022-07-29T00:34:11.058Z,53.47
2022-07-29T00:35:15.060Z,53.70
2022-07-29T00:36:11.059Z,53.84
2022-07-29T00:37:11.067Z,54.01
2022-07-29T00:38:11.062Z,53.93
2022-07-29T00:39:11.063Z,54.21
2022-07-29T00:40:11.062Z,54.28
2022-07-29T00:41:11.061Z,54.20
2022-07-29T00:42:11.079Z,54.26
2022-07-29T00:43:11.059Z,54.49
2022-07-29T00:44:11.062Z,54.45
2022-07-29T00:45:11.061Z,54.22
2022-07-29T00:46:11.079Z,54.40
2022-07-29T00:47:11.250Z,54.45
2022-07-29T00:48:11.058Z,54.20
2022-07-29T00:49:12.145Z,54.42
2022-07-29T00:50:11.070Z,54.32
2022-07-29T00:51:11.062Z,54.17
2022-07-29T00:52:11.069Z,54.33
2022-07-29T00:53:12.069Z,54.43
2022-07-29T00:54:11.063Z,54.37
2022-07-29T00:55:11.058Z,54.50
2022-07-29T00:56:11.064Z,54.55
2022-07-29T00:57:11.062Z,54.54
2022-07-29T00:58:12.059Z,54.61
2022-07-29T00:59:11.065Z,54.62
2022-07-29T01:00:11.065Z,54.68
2022-07-29T01:01:11.122Z,54.51
2022-07-29T01:02:11.179Z,54.54
2022-07-29T01:03:11.064Z,54.72
2022-07-29T01:04:11.061Z,54.77
2022-07-29T01:05:11.063Z,54.85
2022-07-29T01:06:11.067Z,54.72
2022-07-29T01:07:11.062Z,54.68
2022-07-29T01:08:12.064Z,54.59
2022-07-29T01:09:11.071Z,54.64
2022-07-29T01:10:13.060Z,54.57
2022-07-29T01:11:11.065Z,54.39
2022-07-29T01:12:11.070Z,54.52
2022-07-29T01:13:11.067Z,54.55
2022-07-29T01:14:11.062Z,54.62
2022-07-29T01:15:11.073Z,54.73
2022-07-29T01:16:16.129Z,54.65
2022-07-29T01:17:18.065Z,54.61
2022-07-29T01:18:15.066Z,54.55
2022-07-29T01:19:19.075Z,54.54
2022-07-29T01:20:19.066Z,54.54
2022-07-29T01:21:19.064Z,54.64
2022-07-29T01:22:21.062Z,54.81
2022-07-29T01:23:19.061Z,54.92
2022-07-29T01:24:19.219Z,54.78
2022-07-29T01:25:19.061Z,54.81
2022-07-29T01:26:20.627Z,54.92
2022-07-29T01:27:22.057Z,54.76
2022-07-29T01:28:21.062Z,54.91
2022-07-29T01:29:19.063Z,54.92
2022-07-29T01:30:11.067Z,54.87
2022-07-29T01:31:11.146Z,54.72
2022-07-29T01:32:22.559Z,54.75
2022-07-29T01:33:16.117Z,54.72
2022-07-29T01:34:15.309Z,54.92
2022-07-29T01:35:24.060Z,54.82
2022-07-29T01:36:14.061Z,54.72
2022-07-29T01:37:19.061Z,54.75
2022-07-29T01:38:17.070Z,54.88
2022-07-29T01:39:17.063Z,54.93
2022-07-29T01:40:19.060Z,54.97
2022-07-29T01:41:16.062Z,54.83
2022-07-29T01:42:20.061Z,54.91
2022-07-29T01:43:19.069Z,54.88
2022-07-29T01:44:18.711Z,54.76
2022-07-29T01:45:19.060Z,54.96
2022-07-29T01:46:15.171Z,55.05
2022-07-29T01:47:15.065Z,55.13
2022-07-29T01:48:18.064Z,55.26
2022-07-29T01:49:17.156Z,55.14
2022-07-29T01:50:13.060Z,55.10
2022-07-29T01:51:16.071Z,55.00
2022-07-29T01:52:19.388Z,55.09
2022-07-29T01:53:11.070Z,55.14
2022-07-29T01:54:20.065Z,55.30
2022-07-29T01:55:14.066Z,55.30
2022-07-29T01:56:11.065Z,55.26
2022-07-29T01:57:11.067Z,55.26
2022-07-29T01:58:11.068Z,55.43
2022-07-29T01:59:11.068Z,55.69
2022-07-29T02:00:11.067Z,55.60
2022-07-29T02:01:11.063Z,55.68
2022-07-29T02:02:11.118Z,55.76
2022-07-29T02:03:12.066Z,55.83
2022-07-29T02:04:12.207Z,55.83
2022-07-29T02:05:14.253Z,55.79
2022-07-29T02:06:12.068Z,55.89
2022-07-29T02:07:14.069Z,55.78
2022-07-29T02:08:11.069Z,55.70
2022-07-29T02:09:11.068Z,55.93
2022-07-29T02:10:11.065Z,55.87
2022-07-29T02:11:11.064Z,55.90
2022-07-29T02:12:11.066Z,56.13
2022-07-29T02:13:11.063Z,56.21
2022-07-29T02:14:12.173Z,56.12
2022-07-29T02:15:11.069Z,56.41
2022-07-29T02:16:11.107Z,56.60
2022-07-29T02:17:11.067Z,56.65
2022-07-29T02:18:17.075Z,56.85
2022-07-29T02:19:11.068Z,56.85
2022-07-29T02:20:11.075Z,56.82
2022-07-29T02:21:14.786Z,56.71
2022-07-29T02:22:11.072Z,56.68
2022-07-29T02:23:12.060Z,56.79
2022-07-29T02:24:11.059Z,56.74
2022-07-29T02:25:14.075Z,56.76
2022-07-29T02:26:11.060Z,56.99
2022-07-29T02:27:11.061Z,56.95
2022-07-29T02:28:11.060Z,57.11
2022-07-29T02:29:11.063Z,57.01
2022-07-29T02:30:11.101Z,56.98
2022-07-29T02:31:11.145Z,57.08
2022-07-29T02:32:12.061Z,57.07
2022-07-29T02:33:12.060Z,57.00
2022-07-29T02:34:11.071Z,57.01
2022-07-29T02:35:11.071Z,56.96
2022-07-29T02:36:11.062Z,57.15
2022-07-29T02:37:11.069Z,57.20
2022-07-29T02:38:16.062Z,57.26
2022-07-29T02:39:11.061Z,57.33
2022-07-29T02:40:11.061Z,57.40
2022-07-29T02:41:17.062Z,57.31
2022-07-29T02:42:12.061Z,57.33
2022-07-29T02:43:11.058Z,57.36
2022-07-29T02:44:18.471Z,57.54
2022-07-29T02:45:11.063Z,57.44
2022-07-29T02:46:28.260Z,57.46
2022-07-29T02:47:22.110Z,57.41
2022-07-29T02:48:15.065Z,57.21
2022-07-29T02:49:18.141Z,57.07
2022-07-29T02:50:21.061Z,57.07
2022-07-29T02:51:43.351Z,57.18
2022-07-29T02:52:22.052Z,57.22
2022-07-29T02:53:16.076Z,57.33
2022-07-29T02:54:11.069Z,57.40
2022-07-29T02:55:19.060Z,57.46
2022-07-29T02:56:15.065Z,57.40
2022-07-29T02:57:19.077Z,57.27
2022-07-29T02:58:22.082Z,57.21
2022-07-29T02:59:12.066Z,57.39
2022-07-29T03:00:11.060Z,57.51
2022-07-29T03:01:21.577Z,57.53
2022-07-29T03:02:11.163Z,57.81
2022-07-29T03:03:13.066Z,57.99
2022-07-29T03:04:12.222Z,57.84
2022-07-29T03:05:11.179Z,57.91
2022-07-29T03:06:28.094Z,57.76
2022-07-29T03:07:13.136Z,57.88
2022-07-29T03:08:12.069Z,57.83
2022-07-29T03:09:13.473Z,57.64
2022-07-29T03:10:13.598Z,57.63
2022-07-29T03:11:11.065Z,57.60
2022-07-29T03:12:11.071Z,57.61
2022-07-29T03:13:11.065Z,57.69
2022-07-29T03:14:11.068Z,57.63
2022-07-29T03:15:11.074Z,57.54
2022-07-29T03:16:11.135Z,57.48
2022-07-29T03:17:12.069Z,57.54
2022-07-29T03:18:11.075Z,57.52
2022-07-29T03:19:11.070Z,57.39
2022-07-29T03:20:11.070Z,57.50
2022-07-29T03:21:11.070Z,57.49
2022-07-29T03:22:11.068Z,57.50
2022-07-29T03:23:11.060Z,57.29
2022-07-29T03:24:11.258Z,57.41
2022-07-29T03:25:11.059Z,57.40
2022-07-29T03:26:11.058Z,57.33
2022-07-29T03:27:11.059Z,57.38
2022-07-29T03:28:11.060Z,57.38
2022-07-29T03:29:11.058Z,57.36
2022-07-29T03:30:11.060Z,57.45
2022-07-29T03:31:11.116Z,57.41
2022-07-29T03:32:11.064Z,57.33
2022-07-29T03:33:13.550Z,57.54
2022-07-29T03:34:11.066Z,57.59
2022-07-29T03:35:11.060Z,57.63
2022-07-29T03:36:11.063Z,57.69
2022-07-29T03:37:11.067Z,57.73
2022-07-29T03:38:11.061Z,57.88
2022-07-29T03:39:11.065Z,57.76
2022-07-29T03:40:12.069Z,57.71
2022-07-29T03:41:11.069Z,57.68
2022-07-29T03:42:12.062Z,57.63
2022-07-29T03:43:11.060Z,57.60
2022-07-29T03:44:11.072Z,57.73
2022-07-29T03:45:13.060Z,57.87
2022-07-29T03:46:11.137Z,57.79
2022-07-29T03:47:11.063Z,58.05
2022-07-29T03:48:13.059Z,58.19
2022-07-29T03:49:11.116Z,58.13
2022-07-29T03:50:11.070Z,58.27
2022-07-29T03:51:11.064Z,58.48
2022-07-29T03:52:11.065Z,58.50
2022-07-29T03:53:11.074Z,58.69
2022-07-29T03:54:11.064Z,58.57
2022-07-29T03:55:11.066Z,58.51
2022-07-29T03:56:11.076Z,58.66
2022-07-29T03:57:11.066Z,58.73
2022-07-29T03:58:11.060Z,58.84
2022-07-29T03:59:11.101Z,58.98
2022-07-29T04:00:11.094Z,58.96
2022-07-29T04:01:11.066Z,58.92
2022-07-29T04:02:11.088Z,58.95
2022-07-29T04:03:11.826Z,58.75
2022-07-29T04:04:11.067Z,58.56
2022-07-29T04:05:14.065Z,58.63
2022-07-29T04:06:13.067Z,58.80
2022-07-29T04:07:14.063Z,58.82
2022-07-29T04:08:11.070Z,58.92
2022-07-29T04:09:11.077Z,59.36
2022-07-29T04:10:11.067Z,59.17
2022-07-29T04:11:11.069Z,59.21
2022-07-29T04:12:11.073Z,59.17
2022-07-29T04:13:11.068Z,59.24
2022-07-29T04:14:11.072Z,59.22
2022-07-29T04:15:11.070Z,59.45
2022-07-29T04:16:11.154Z,59.47
2022-07-29T04:17:11.064Z,59.35
2022-07-29T04:18:11.066Z,59.50
2022-07-29T04:19:11.068Z,59.59
2022-07-29T04:20:11.066Z,59.76
2022-07-29T04:21:11.067Z,59.72
2022-07-29T04:22:11.076Z,59.41
2022-07-29T04:23:11.057Z,59.54
2022-07-29T04:24:11.054Z,59.59
2022-07-29T04:25:11.060Z,59.53
2022-07-29T04:26:11.061Z,59.62
2022-07-29T04:27:11.057Z,59.77
2022-07-29T04:28:11.062Z,59.78
2022-07-29T04:29:11.060Z,59.96
2022-07-29T04:30:11.056Z,60.00
2022-07-29T04:31:11.128Z,59.93
2022-07-29T04:32:11.067Z,59.87
2022-07-29T04:33:11.059Z,60.06
2022-07-29T04:34:11.062Z,60.26
2022-07-29T04:35:11.067Z,60.22
2022-07-29T04:36:28.892Z,60.54
2022-07-29T04:37:13.185Z,60.56
2022-07-29T04:38:15.904Z,60.55
2022-07-29T04:39:13.136Z,60.49
2022-07-29T04:40:11.059Z,60.64
2022-07-29T04:41:11.061Z,60.86
2022-07-29T04:42:11.069Z,60.66
2022-07-29T04:43:11.057Z,60.61
2022-07-29T04:44:11.062Z,60.66
2022-07-29T04:45:11.067Z,60.56
2022-07-29T04:46:11.155Z,60.63
2022-07-29T04:47:11.058Z,60.99
2022-07-29T04:48:11.064Z,61.10
2022-07-29T04:49:11.121Z,61.07
2022-07-29T04:50:11.066Z,61.29
2022-07-29T04:51:11.061Z,61.48
2022-07-29T04:52:11.065Z,61.48
2022-07-29T04:53:11.061Z,61.24
2022-07-29T04:54:11.061Z,61.24
2022-07-29T04:55:11.063Z,61.52
2022-07-29T04:56:11.062Z,61.53
2022-07-29T04:57:11.062Z,61.45
2022-07-29T04:58:11.065Z,61.31
2022-07-29T04:59:11.062Z,61.29
2022-07-29T05:00:11.070Z,61.18
2022-07-29T05:01:11.150Z,61.17
2022-07-29T05:02:11.163Z,61.45
2022-07-29T05:03:11.114Z,61.58
2022-07-29T05:04:11.064Z,61.49
2022-07-29T05:05:11.073Z,61.53
2022-07-29T05:06:11.079Z,61.59
2022-07-29T05:07:11.067Z,61.60
2022-07-29T05:08:11.081Z,61.77
2022-07-29T05:09:11.071Z,61.96
2022-07-29T05:10:11.063Z,61.80
2022-07-29T05:11:12.020Z,61.50
2022-07-29T05:12:11.074Z,61.54
2022-07-29T05:13:11.062Z,61.75
2022-07-29T05:14:11.065Z,61.78
2022-07-29T05:15:11.066Z,61.69
2022-07-29T05:16:11.178Z,61.70
2022-07-29T05:17:11.064Z,62.20
2022-07-29T05:18:11.067Z,62.36
2022-07-29T05:19:14.147Z,62.32
2022-07-29T05:20:11.066Z,62.47
2022-07-29T05:21:11.073Z,62.32
2022-07-29T05:22:11.068Z,62.34
2022-07-29T05:23:11.060Z,62.51
2022-07-29T05:24:11.069Z,62.75
2022-07-29T05:25:11.056Z,62.67
2022-07-29T05:26:11.064Z,62.73
2022-07-29T05:27:11.069Z,62.69
2022-07-29T05:28:11.059Z,62.76
2022-07-29T05:29:42.896Z,62.69
2022-07-29T05:30:13.145Z,62.68
2022-07-29T05:31:11.104Z,62.70
2022-07-29T05:32:11.081Z,62.79
2022-07-29T05:33:35.373Z,62.72
2022-07-29T05:34:13.694Z,62.89
2022-07-29T05:35:11.057Z,62.88
2022-07-29T05:36:13.062Z,62.81
2022-07-29T05:37:11.071Z,62.77
2022-07-29T05:38:11.061Z,62.79
2022-07-29T05:39:11.063Z,62.94
2022-07-29T05:40:11.067Z,63.31
2022-07-29T05:41:11.062Z,63.38
2022-07-29T05:42:13.064Z,63.41
2022-07-29T05:43:11.063Z,63.18
2022-07-29T05:44:11.062Z,63.05
2022-07-29T05:45:11.057Z,63.37
2022-07-29T05:46:11.127Z,63.29
2022-07-29T05:47:11.064Z,63.43
2022-07-29T05:48:11.062Z,63.43
2022-07-29T05:49:11.107Z,63.40
2022-07-29T05:50:13.848Z,63.29
2022-07-29T05:51:11.060Z,63.48
2022-07-29T05:52:11.062Z,64.60
2022-07-29T05:53:19.576Z,64.49
2022-07-29T05:54:13.467Z,63.96
2022-07-29T05:55:11.064Z,64.06
2022-07-29T05:56:11.067Z,63.94
2022-07-29T05:57:15.063Z,63.87
2022-07-29T05:58:11.060Z,64.20
2022-07-29T05:59:18.115Z,64.22
2022-07-29T06:00:13.352Z,64.43
2022-07-29T06:01:11.119Z,64.68
2022-07-29T06:02:11.068Z,64.84
2022-07-29T06:03:11.063Z,64.51
2022-07-29T06:04:11.086Z,64.35
2022-07-29T06:05:16.231Z,64.12
2022-07-29T06:06:13.182Z,64.02
2022-07-29T06:07:11.063Z,64.07
2022-07-29T06:08:13.065Z,64.08
2022-07-29T06:09:12.483Z,64.35
2022-07-29T06:10:11.066Z,64.42
2022-07-29T06:11:11.068Z,64.28
2022-07-29T06:12:11.067Z,64.00
2022-07-29T06:13:11.065Z,63.64
2022-07-29T06:14:11.063Z,63.74
2022-07-29T06:15:11.068Z,63.81
2022-07-29T06:16:11.139Z,63.81
2022-07-29T06:17:11.069Z,64.09
2022-07-29T06:18:13.080Z,63.89
2022-07-29T06:19:11.066Z,63.62
2022-07-29T06:20:11.062Z,63.89
2022-07-29T06:21:11.068Z,64.13
2022-07-29T06:22:11.069Z,64.18
2022-07-29T06:23:11.062Z,63.92
2022-07-29T06:24:11.062Z,63.88
2022-07-29T06:25:11.059Z,63.75
2022-07-29T06:26:11.055Z,63.74
2022-07-29T06:27:13.066Z,63.61
2022-07-29T06:28:11.065Z,63.78
2022-07-29T06:29:11.057Z,63.83
2022-07-29T06:30:11.072Z,63.70
2022-07-29T06:31:11.117Z,63.50
2022-07-29T06:32:11.061Z,63.73
2022-07-29T06:33:11.060Z,63.68
2022-07-29T06:34:11.068Z,63.52
2022-07-29T06:36:13.347Z,63.32
2022-07-29T06:37:15.358Z,63.24
2022-07-29T06:38:25.068Z,63.32
2022-07-29T06:39:13.364Z,63.42
2022-07-29T06:40:15.063Z,63.37
2022-07-29T06:41:11.074Z,63.54
2022-07-29T06:42:11.064Z,63.35
2022-07-29T06:43:11.065Z,63.67
2022-07-29T06:44:11.064Z,63.85
2022-07-29T06:45:11.059Z,63.60
2022-07-29T06:46:14.112Z,63.54
2022-07-29T06:47:11.067Z,63.28
2022-07-29T06:48:11.063Z,63.34
2022-07-29T06:49:11.123Z,63.31
2022-07-29T06:50:11.069Z,63.29
2022-07-29T06:51:11.060Z,63.17
2022-07-29T06:52:11.063Z,63.08
2022-07-29T06:53:11.069Z,63.00
2022-07-29T06:54:11.063Z,63.08
2022-07-29T06:55:11.062Z,63.15
2022-07-29T06:56:13.776Z,63.01
2022-07-29T06:57:11.069Z,63.11
2022-07-29T06:58:11.066Z,63.21
2022-07-29T06:59:11.079Z,62.98
2022-07-29T07:00:11.065Z,63.40
2022-07-29T07:01:11.092Z,63.60
2022-07-29T07:02:11.091Z,63.49
2022-07-29T07:03:11.065Z,63.73
2022-07-29T07:04:11.064Z,63.66
2022-07-29T07:05:11.063Z,63.29
2022-07-29T07:06:14.940Z,63.43
2022-07-29T07:07:11.063Z,63.13
2022-07-29T07:08:11.065Z,62.85
2022-07-29T07:09:11.073Z,62.65
2022-07-29T07:10:11.066Z,62.56
2022-07-29T07:11:11.062Z,62.61
2022-07-29T07:12:11.066Z,62.59
2022-07-29T07:13:11.065Z,62.32
2022-07-29T07:14:11.064Z,62.18
2022-07-29T07:15:11.068Z,62.02
2022-07-29T07:16:11.139Z,61.75
2022-07-29T07:17:11.066Z,61.88
2022-07-29T07:18:11.068Z,61.65
2022-07-29T07:19:11.071Z,61.64
2022-07-29T07:20:11.065Z,62.07
2022-07-29T07:21:11.065Z,61.80
2022-07-29T07:22:11.068Z,61.70
2022-07-29T07:23:11.085Z,61.38
2022-07-29T07:24:11.057Z,61.05
2022-07-29T07:25:11.059Z,60.96
2022-07-29T07:26:11.057Z,60.71
2022-07-29T07:27:11.061Z,60.76
2022-07-29T07:28:11.062Z,60.37
2022-07-29T07:29:11.058Z,60.46
2022-07-29T07:30:13.061Z,60.16
2022-07-29T07:31:11.060Z,59.91
2022-07-29T07:32:11.146Z,59.47
2022-07-29T07:33:11.058Z,59.17
2022-07-29T07:34:11.061Z,59.31
2022-07-29T07:35:11.057Z,59.66
2022-07-29T07:36:11.060Z,59.45
2022-07-29T07:37:11.069Z,59.43
2022-07-29T07:38:11.057Z,59.31
2022-07-29T07:39:11.060Z,59.08
2022-07-29T07:40:11.068Z,59.07
2022-07-29T07:41:11.060Z,58.78
2022-07-29T07:42:11.064Z,58.47
2022-07-29T07:43:11.068Z,58.33
2022-07-29T07:44:15.888Z,58.27
2022-07-29T07:45:16.263Z,58.40
2022-07-29T07:46:11.107Z,58.23
2022-07-29T07:47:12.585Z,58.10
2022-07-29T07:48:11.065Z,57.77
2022-07-29T07:49:11.109Z,57.91
2022-07-29T07:50:16.328Z,57.79
2022-07-29T07:51:13.168Z,57.96
2022-07-29T07:52:11.059Z,58.07
2022-07-29T07:53:11.065Z,58.06
2022-07-29T07:54:11.063Z,57.91
2022-07-29T07:55:11.059Z,58.03
2022-07-29T07:56:12.102Z,58.01
2022-07-29T07:57:11.064Z,58.29
2022-07-29T07:58:11.060Z,58.20
2022-07-29T07:59:11.068Z,58.40
2022-07-29T08:00:11.065Z,58.13
2022-07-29T08:01:11.195Z,58.13
2022-07-29T08:02:11.216Z,57.87
2022-07-29T08:03:17.083Z,58.20
2022-07-29T08:04:13.396Z,57.68
2022-07-29T08:05:12.562Z,58.45
2022-07-29T08:06:11.066Z,58.23
2022-07-29T08:07:11.063Z,57.93
2022-07-29T08:08:11.081Z,57.75
2022-07-29T08:09:28.111Z,57.54
2022-07-29T08:10:13.168Z,57.30
2022-07-29T08:11:11.073Z,57.35
2022-07-29T08:12:11.069Z,57.63
2022-07-29T08:13:11.062Z,57.45
2022-07-29T08:14:11.065Z,57.15
2022-07-29T08:15:12.124Z,56.93
2022-07-29T08:16:15.172Z,56.80
2022-07-29T08:17:11.064Z,56.87
2022-07-29T08:18:11.075Z,56.53
2022-07-29T08:19:11.068Z,56.49
2022-07-29T08:20:11.063Z,55.71
2022-07-29T08:21:11.075Z,55.29
2022-07-29T08:22:11.071Z,54.88
2022-07-29T08:23:11.060Z,54.78
2022-07-29T08:24:15.068Z,54.62
2022-07-29T08:25:11.059Z,54.72
2022-07-29T08:26:11.055Z,54.08
2022-07-29T08:27:33.496Z,53.81
2022-07-29T08:28:13.161Z,53.46
2022-07-29T08:29:11.066Z,53.32
2022-07-29T08:30:11.097Z,53.19
2022-07-29T08:31:11.063Z,53.12
2022-07-29T08:32:11.090Z,52.86
2022-07-29T08:33:11.054Z,52.97
2022-07-29T08:34:11.059Z,52.65
2022-07-29T08:35:11.066Z,52.54
2022-07-29T08:36:11.058Z,52.79
2022-07-29T08:37:11.059Z,53.11
2022-07-29T08:38:11.068Z,53.31
2022-07-29T08:39:11.070Z,53.10
2022-07-29T08:40:11.063Z,52.92
2022-07-29T08:41:11.069Z,53.27
2022-07-29T08:42:11.063Z,53.00
2022-07-29T08:43:11.065Z,53.03
2022-07-29T08:44:11.066Z,52.90
2022-07-29T08:45:11.064Z,52.78
2022-07-29T08:46:11.112Z,52.81
2022-07-29T08:47:11.068Z,52.42
2022-07-29T08:48:11.059Z,52.40
2022-07-29T08:49:11.188Z,52.35
2022-07-29T08:50:11.071Z,52.04
2022-07-29T08:51:13.059Z,52.09
2022-07-29T08:52:12.064Z,52.07
2022-07-29T08:53:13.070Z,51.99
2022-07-29T08:54:11.064Z,51.93
2022-07-29T08:55:11.061Z,51.69
2022-07-29T08:56:13.070Z,51.80
2022-07-29T08:57:11.064Z,51.73
2022-07-29T08:58:11.063Z,51.95
2022-07-29T08:59:11.062Z,51.71
2022-07-29T09:00:11.651Z,51.57
2022-07-29T09:01:12.352Z,51.38
2022-07-29T09:02:16.069Z,51.33
2022-07-29T09:03:12.086Z,51.33
2022-07-29T09:04:12.063Z,51.00
2022-07-29T09:05:11.068Z,50.96
2022-07-29T09:06:13.073Z,50.85
2022-07-29T09:07:11.068Z,50.44
2022-07-29T09:08:11.063Z,50.06
2022-07-29T09:09:11.068Z,49.66
2022-07-29T09:10:11.066Z,49.94
2022-07-29T09:11:11.062Z,49.71
2022-07-29T09:12:11.068Z,49.61
2022-07-29T09:13:11.068Z,49.33
2022-07-29T09:14:11.066Z,48.88
2022-07-29T09:15:11.069Z,48.90
2022-07-29T09:16:11.118Z,48.68
2022-07-29T09:17:11.106Z,48.33
2022-07-29T09:18:20.609Z,48.54
2022-07-29T09:19:21.140Z,48.22
2022-07-29T09:20:18.184Z,48.01
2022-07-29T09:21:16.064Z,47.88
2022-07-29T09:22:11.067Z,47.73
2022-07-29T09:23:11.067Z,47.42
2022-07-29T09:24:16.092Z,47.64
2022-07-29T09:25:12.053Z,47.59
2022-07-29T09:26:11.068Z,47.35
2022-07-29T09:27:19.055Z,47.01
2022-07-29T09:28:14.053Z,46.62
2022-07-29T09:29:14.060Z,46.34
2022-07-29T09:30:11.069Z,46.37
2022-07-29T09:31:11.072Z,45.91
2022-07-29T09:32:11.058Z,45.56
2022-07-29T09:33:11.072Z,45.70
2022-07-29T09:34:11.057Z,45.55
2022-07-29T09:35:15.063Z,44.78
2022-07-29T09:36:12.067Z,44.50
2022-07-29T09:37:11.059Z,44.45
2022-07-29T09:38:13.065Z,44.26
2022-07-29T09:39:11.067Z,43.97
2022-07-29T09:40:15.062Z,44.12
2022-07-29T09:41:11.064Z,44.22
2022-07-29T09:42:11.069Z,43.66
2022-07-29T09:43:13.061Z,43.46
2022-07-29T09:44:11.059Z,43.31
2022-07-29T09:45:11.060Z,43.22
2022-07-29T09:46:16.199Z,43.17
2022-07-29T09:47:13.088Z,43.07
2022-07-29T09:48:15.064Z,43.14
2022-07-29T09:49:14.178Z,43.00
2022-07-29T09:50:11.064Z,42.41
2022-07-29T09:51:21.366Z,42.57
2022-07-29T09:52:11.063Z,42.50
2022-07-29T09:53:11.065Z,42.08
2022-07-29T09:54:19.060Z,42.11
2022-07-29T09:55:13.580Z,41.78
2022-07-29T09:56:13.166Z,41.83
2022-07-29T09:57:15.063Z,42.04
2022-07-29T09:58:17.067Z,42.08
2022-07-29T09:59:11.063Z,42.04
2022-07-29T10:00:15.123Z,41.77
2022-07-29T10:01:11.180Z,41.68
2022-07-29T10:02:20.305Z,41.40
2022-07-29T10:03:13.435Z,41.37
2022-07-29T10:04:11.068Z,41.19
2022-07-29T10:05:18.063Z,40.96
2022-07-29T10:06:13.069Z,40.96
2022-07-29T10:07:11.073Z,41.01
2022-07-29T10:08:11.071Z,40.56
2022-07-29T10:09:11.062Z,40.59
2022-07-29T10:10:11.069Z,40.09
2022-07-29T10:11:17.066Z,39.80
2022-07-29T10:12:13.069Z,39.58
2022-07-29T10:13:15.389Z,39.63
2022-07-29T10:14:11.076Z,39.30
2022-07-29T10:15:11.067Z,39.26
2022-07-29T10:16:11.131Z,39.22
2022-07-29T10:17:11.076Z,39.23
2022-07-29T10:18:11.066Z,39.30
2022-07-29T10:19:11.070Z,39.33
2022-07-29T10:20:14.810Z,39.17
2022-07-29T10:21:35.365Z,38.78
2022-07-29T10:22:14.963Z,39.19
2022-07-29T10:23:11.059Z,38.46
2022-07-29T10:24:15.094Z,37.89
2022-07-29T10:25:11.057Z,37.86
2022-07-29T10:26:11.059Z,37.57
2022-07-29T10:27:11.058Z,37.33
2022-07-29T10:28:15.810Z,37.27
2022-07-29T10:29:13.342Z,37.54
2022-07-29T10:30:11.060Z,37.90
2022-07-29T10:31:18.113Z,37.81
2022-07-29T10:32:19.058Z,37.85
2022-07-29T10:33:19.072Z,37.56
2022-07-29T10:34:19.238Z,37.82
2022-07-29T10:35:23.060Z,38.16
2022-07-29T10:36:19.056Z,38.31
2022-07-29T10:37:17.061Z,38.24
2022-07-29T10:38:19.073Z,38.48
2022-07-29T10:39:22.274Z,38.38
2022-07-29T10:40:23.061Z,37.88
2022-07-29T10:41:23.062Z,37.85
2022-07-29T10:42:29.411Z,37.62
2022-07-29T10:43:22.287Z,37.47
2022-07-29T10:44:17.349Z,37.33
2022-07-29T10:45:11.064Z,37.11
2022-07-29T10:46:11.114Z,37.05
2022-07-29T10:47:15.065Z,36.84
2022-07-29T10:48:11.064Z,36.73
2022-07-29T10:49:17.145Z,36.49
2022-07-29T10:50:16.970Z,36.44
2022-07-29T10:51:13.227Z,36.46
2022-07-29T10:52:12.066Z,36.31
2022-07-29T10:53:11.063Z,36.62
2022-07-29T10:54:11.066Z,37.05
2022-07-29T10:55:15.066Z,36.88
2022-07-29T10:56:19.063Z,36.95
2022-07-29T10:57:20.818Z,37.06
2022-07-29T10:58:17.888Z,37.06
2022-07-29T10:59:19.065Z,36.66
2022-07-29T11:00:19.063Z,36.97
2022-07-29T11:01:19.067Z,36.95
2022-07-29T11:02:41.368Z,36.86
2022-07-29T11:03:13.154Z,37.25
2022-07-29T11:04:11.068Z,36.93
2022-07-29T11:05:15.066Z,36.57
2022-07-29T11:06:11.067Z,36.63
2022-07-29T11:07:11.077Z,36.25
2022-07-29T11:08:19.536Z,36.04
2022-07-29T11:09:19.947Z,35.44
2022-07-29T11:10:20.167Z,35.61
2022-07-29T11:11:22.229Z,35.54
2022-07-29T11:12:21.069Z,35.02
2022-07-29T11:13:11.067Z,34.75
2022-07-29T11:14:11.067Z,35.04
2022-07-29T11:15:11.071Z,35.31
2022-07-29T11:16:11.377Z,35.14
2022-07-29T11:17:11.063Z,35.08
2022-07-29T11:18:15.042Z,34.98
2022-07-29T11:19:26.470Z,34.80
2022-07-29T11:20:21.278Z,34.55
2022-07-29T11:21:19.066Z,34.53
2022-07-29T11:22:11.070Z,34.48
2022-07-29T11:23:19.058Z,34.60
2022-07-29T11:24:18.619Z,34.29
2022-07-29T11:25:17.317Z,34.08
2022-07-29T11:26:18.960Z,34.38
2022-07-29T11:27:14.056Z,34.51
2022-07-29T11:29:21.243Z,34.56
2022-07-29T11:30:11.068Z,34.43
2022-07-29T11:31:11.058Z,34.42
2022-07-29T11:32:18.213Z,34.29
2022-07-29T11:33:21.058Z,33.99
2022-07-29T11:34:21.171Z,34.32
2022-07-29T11:35:18.826Z,34.32
2022-07-29T11:36:11.063Z,34.57
2022-07-29T11:37:25.656Z,34.59
2022-07-29T11:38:21.234Z,34.66
2022-07-29T11:39:19.061Z,34.63
2022-07-29T11:40:13.061Z,34.85
2022-07-29T11:41:19.069Z,34.43
2022-07-29T11:42:32.347Z,34.52
2022-07-29T11:43:13.134Z,34.28
2022-07-29T11:44:11.061Z,34.34
2022-07-29T11:45:41.778Z,34.56
2022-07-29T11:46:13.087Z,34.21
2022-07-29T11:47:11.064Z,34.42
2022-07-29T11:48:29.785Z,34.21
2022-07-29T11:50:14.095Z,34.05
2022-07-29T11:51:12.092Z,34.10
2022-07-29T11:52:11.067Z,34.02
2022-07-29T11:53:13.071Z,34.06
2022-07-29T11:54:13.066Z,33.95
2022-07-29T11:55:11.070Z,34.00
2022-07-29T11:56:16.985Z,34.21
2022-07-29T11:57:11.067Z,34.12
2022-07-29T11:58:11.064Z,34.27
2022-07-29T11:59:11.065Z,34.42
2022-07-29T12:00:12.655Z,34.25
2022-07-29T12:01:13.065Z,34.40
2022-07-29T12:02:37.177Z,34.67
2022-07-29T12:03:13.278Z,34.68
2022-07-29T12:04:11.117Z,34.66
2022-07-29T12:05:11.320Z,35.20
2022-07-29T12:06:17.347Z,35.40
2022-07-29T12:07:11.276Z,35.26
2022-07-29T12:08:20.068Z,35.36
2022-07-29T12:09:14.609Z,35.08
2022-07-29T12:10:11.477Z,34.85
2022-07-29T12:11:22.128Z,34.79
2022-07-29T12:12:11.069Z,34.97
2022-07-29T12:13:11.071Z,35.02
2022-07-29T12:14:11.073Z,34.71
2022-07-29T12:15:18.070Z,34.61
2022-07-29T12:16:11.129Z,34.67
2022-07-29T12:17:19.073Z,34.67
2022-07-29T12:18:16.088Z,34.44
2022-07-29T12:19:11.069Z,34.12
2022-07-29T12:20:11.069Z,34.12
2022-07-29T12:21:12.578Z,34.04
2022-07-29T12:22:11.072Z,34.04
2022-07-29T12:23:11.056Z,33.93
2022-07-29T12:24:11.059Z,33.72
2022-07-29T12:25:32.892Z,33.49
2022-07-29T12:26:25.371Z,33.70
2022-07-29T12:27:13.180Z,33.80
2022-07-29T12:28:14.227Z,33.86
2022-07-29T12:29:20.073Z,33.96
2022-07-29T12:30:14.061Z,34.01
2022-07-29T12:31:15.147Z,34.03
2022-07-29T12:32:15.099Z,34.08
2022-07-29T12:33:21.135Z,34.46
2022-07-29T12:34:11.062Z,34.40
2022-07-29T12:35:14.057Z,34.40
2022-07-29T12:36:17.103Z,34.61
2022-07-29T12:37:13.262Z,34.62
2022-07-29T12:38:11.062Z,34.63
2022-07-29T12:39:11.069Z,34.81
2022-07-29T12:40:11.069Z,34.94
2022-07-29T12:41:11.063Z,34.92
2022-07-29T12:42:18.276Z,35.01
2022-07-29T12:43:11.069Z,34.88
2022-07-29T12:44:11.065Z,35.05
2022-07-29T12:45:11.061Z,35.23
2022-07-29T12:46:15.162Z,35.33
2022-07-29T12:47:11.070Z,35.57
2022-07-29T12:48:11.062Z,36.07
2022-07-29T12:49:11.109Z,35.88
2022-07-29T12:50:16.073Z,35.62
2022-07-29T12:51:11.105Z,35.61
2022-07-29T12:52:19.068Z,35.69
2022-07-29T12:53:15.063Z,35.71
2022-07-29T12:54:15.066Z,35.75
2022-07-29T12:55:11.064Z,35.75